Time;durP1;ratioP1;P1;durP2;ratioP2;P2;SDS_P1;SDS_P2;PMS_P1;PMS_P2;Temp;Humidity;BMP_temperature;BMP_pressure;BME280_temperature;BME280_humidity;BME280_pressure;Samples;Min_cycle;Max_cycle;Signal;HPM_P1;HPM_P2
2024/01/27 00:00:19;;;;;;;8.20;2.75;;;4.10;99.90;;;;;;5101775;28;20108;-36
2024/01/27 00:02:44;;;;;;;7.55;3.63;;;4.10;99.90;;;;;;5102905;28;20026;-32
2024/01/27 00:05:10;;;;;;;5.97;2.05;;;4.10;99.90;;;;;;5101619;28;20028;-33
2024/01/27 00:07:35;;;;;;;5.35;2.22;;;4.10;99.90;;;;;;5101691;28;20039;-32
2024/01/27 00:10:02;;;;;;;4.68;2.33;;;4.10;99.90;;;;;;5102184;28;20078;-36
2024/01/27 00:12:28;;;;;;;7.32;2.83;;;4.10;99.90;;;;;;5101898;28;20016;-37
2024/01/27 00:14:53;;;;;;;8.60;2.65;;;4.00;99.90;;;;;;5100779;28;20486;-36
2024/01/27 00:17:23;;;;;;;6.28;2.05;;;4.00;99.90;;;;;;5102296;28;20130;-35
2024/01/27 00:19:49;;;;;;;6.47;2.00;;;4.00;99.90;;;;;;5102833;28;20023;-36
2024/01/27 00:22:16;;;;;;;6.90;2.47;;;4.00;99.90;;;;;;5101459;28;20051;-34
2024/01/27 00:24:42;;;;;;;8.50;2.40;;;4.00;99.90;;;;;;5101984;28;20059;-36
2024/01/27 00:27:11;;;;;;;8.18;2.40;;;4.00;99.90;;;;;;5101933;28;20169;-36
2024/01/27 00:29:37;;;;;;;6.65;1.95;;;4.00;99.90;;;;;;5101030;28;20132;-32
2024/01/27 00:32:03;;;;;;;5.97;2.47;;;4.00;99.90;;;;;;5101616;28;20601;-34
2024/01/27 00:34:28;;;;;;;5.85;2.42;;;4.00;99.90;;;;;;5101592;28;20706;-36
2024/01/27 00:36:54;;;;;;;7.68;2.90;;;4.00;99.90;;;;;;5100522;28;20786;-35
2024/01/27 00:39:20;;;;;;;7.70;2.42;;;4.00;99.90;;;;;;5099526;28;20051;-37
2024/01/27 00:41:45;;;;;;;4.15;2.25;;;4.00;99.90;;;;;;5099746;28;20031;-33
2024/01/27 00:44:11;;;;;;;5.15;2.40;;;4.00;99.90;;;;;;5099474;28;20853;-37
2024/01/27 00:46:40;;;;;;;7.97;2.88;;;3.90;99.90;;;;;;5099318;28;20043;-36
2024/01/27 00:49:06;;;;;;;6.72;2.67;;;3.90;99.90;;;;;;5100234;28;20444;-34
2024/01/27 00:51:32;;;;;;;9.65;2.50;;;3.90;99.90;;;;;;5099400;28;20510;-36
2024/01/27 00:53:57;;;;;;;7.20;3.35;;;3.90;99.90;;;;;;5100841;28;20027;-32
2024/01/27 00:56:23;;;;;;;5.25;2.28;;;3.90;99.90;;;;;;5101116;28;20045;-35
2024/01/27 00:58:48;;;;;;;6.22;2.58;;;3.80;99.90;;;;;;5101460;28;20043;-36
2024/01/27 01:01:14;;;;;;;5.60;2.45;;;3.80;99.90;;;;;;5101144;28;20028;-36
2024/01/27 01:03:39;;;;;;;6.38;2.50;;;3.80;99.90;;;;;;5100720;28;20020;-34
2024/01/27 01:06:05;;;;;;;5.75;2.40;;;3.80;99.90;;;;;;5100267;28;20069;-34
2024/01/27 01:08:31;;;;;;;4.57;1.90;;;3.80;99.90;;;;;;5100512;28;20031;-34
2024/01/27 01:10:57;;;;;;;4.38;2.85;;;3.80;99.90;;;;;;5100437;28;20040;-35
2024/01/27 01:13:23;;;;;;;5.13;2.20;;;3.70;99.90;;;;;;5100271;28;20044;-34
2024/01/27 01:15:48;;;;;;;6.75;2.45;;;3.70;99.90;;;;;;5100727;28;20522;-37
2024/01/27 01:18:14;;;;;;;7.07;2.67;;;3.70;99.90;;;;;;5099596;28;20020;-32
2024/01/27 01:20:40;;;;;;;7.10;2.80;;;3.70;99.90;;;;;;5100735;28;20075;-31
2024/01/27 01:23:06;;;;;;;8.82;2.60;;;3.70;99.90;;;;;;5100643;28;20015;-33
2024/01/27 01:25:31;;;;;;;8.05;3.03;;;3.60;99.90;;;;;;5099494;28;20043;-32
2024/01/27 01:27:57;;;;;;;7.75;2.70;;;3.60;99.90;;;;;;5099609;28;20147;-34
2024/01/27 01:30:22;;;;;;;10.52;2.90;;;3.60;99.90;;;;;;5100360;28;20041;-34
2024/01/27 01:32:48;;;;;;;8.02;3.15;;;3.60;99.90;;;;;;5100123;28;20119;-37
2024/01/27 01:35:14;;;;;;;4.60;2.90;;;3.60;99.90;;;;;;5100339;28;20795;-33
2024/01/27 01:37:39;;;;;;;6.60;2.80;;;3.50;99.90;;;;;;5100602;28;20106;-35
2024/01/27 01:40:07;;;;;;;7.75;2.90;;;3.50;99.90;;;;;;5099539;28;20114;-31
2024/01/27 01:42:32;;;;;;;6.00;2.78;;;3.50;99.90;;;;;;5081039;28;20031;-30
2024/01/27 01:44:58;;;;;;;4.72;2.70;;;3.50;99.90;;;;;;5100244;28;20028;-31
2024/01/27 01:47:24;;;;;;;5.75;2.55;;;3.40;99.90;;;;;;5098905;28;20027;-32
2024/01/27 01:49:53;;;;;;;3.30;1.85;;;3.40;99.90;;;;;;5099765;28;20592;-36
2024/01/27 01:52:20;;;;;;;5.78;2.40;;;3.40;99.90;;;;;;5099383;28;20473;-30
2024/01/27 01:54:52;;;;;;;8.73;2.85;;;3.40;99.90;;;;;;5099481;28;20027;-35
2024/01/27 01:57:18;;;;;;;8.68;3.72;;;3.30;99.90;;;;;;5100299;28;20432;-33
2024/01/27 01:59:44;;;;;;;7.55;3.15;;;3.30;99.90;;;;;;5100681;28;20019;-32
2024/01/27 02:02:09;;;;;;;6.88;2.75;;;3.30;99.90;;;;;;5099812;28;20808;-34
2024/01/27 02:04:48;;;;;;;8.60;3.28;;;3.30;99.90;;;;;;5100007;28;20069;-35
2024/01/27 02:07:15;;;;;;;7.68;3.05;;;3.30;99.90;;;;;;5098515;28;20039;-33
2024/01/27 02:09:40;;;;;;;8.45;2.75;;;3.30;99.90;;;;;;5099777;28;20034;-30
2024/01/27 02:12:06;;;;;;;7.22;3.10;;;3.30;99.90;;;;;;5099785;28;20035;-32
2024/01/27 02:14:32;;;;;;;6.25;2.58;;;3.30;99.90;;;;;;5098729;28;20163;-32
2024/01/27 02:17:01;;;;;;;5.18;2.80;;;3.30;99.90;;;;;;5100378;28;20027;-34
2024/01/27 02:19:26;;;;;;;7.05;2.85;;;3.20;99.90;;;;;;5098731;28;20136;-32
2024/01/27 02:21:52;;;;;;;6.63;2.80;;;3.20;99.90;;;;;;5099153;28;20118;-36
2024/01/27 02:24:17;;;;;;;8.52;3.28;;;3.20;99.90;;;;;;5099657;28;20122;-33
2024/01/27 02:26:43;;;;;;;5.13;2.78;;;3.20;99.90;;;;;;5099736;28;20031;-36
2024/01/27 02:29:08;;;;;;;6.85;2.85;;;3.20;99.90;;;;;;5099524;28;20067;-35
2024/01/27 02:31:34;;;;;;;7.03;2.75;;;3.10;99.90;;;;;;5099691;28;20063;-33
2024/01/27 02:34:00;;;;;;;7.13;3.10;;;3.10;99.90;;;;;;5099083;28;20016;-31
2024/01/27 02:36:25;;;;;;;12.63;3.88;;;3.10;99.90;;;;;;5099501;28;20024;-31
2024/01/27 02:38:54;;;;;;;8.52;3.47;;;3.10;99.90;;;;;;5099195;28;20512;-34
2024/01/27 02:41:19;;;;;;;8.15;3.05;;;3.10;99.90;;;;;;5099443;28;20031;-32
2024/01/27 02:43:45;;;;;;;9.43;3.22;;;3.10;99.90;;;;;;5098907;28;20779;-36
2024/01/27 02:46:12;;;;;;;10.07;3.47;;;3.10;99.90;;;;;;5099376;28;20547;-35
2024/01/27 02:48:43;;;;;;;7.38;2.97;;;3.00;99.90;;;;;;5099428;28;20016;-33
2024/01/27 02:51:09;;;;;;;10.07;3.03;;;3.00;99.90;;;;;;5095869;28;20019;-35
2024/01/27 02:53:35;;;;;;;5.22;3.10;;;3.00;99.90;;;;;;5099414;28;20030;-33
2024/01/27 02:56:01;;;;;;;5.38;3.13;;;3.00;99.90;;;;;;5098497;28;20016;-36
2024/01/27 02:58:26;;;;;;;7.40;3.58;;;3.00;99.90;;;;;;5099289;28;20477;-35
2024/01/27 03:00:52;;;;;;;6.35;2.92;;;3.00;99.90;;;;;;5099101;28;20035;-32
2024/01/27 03:03:18;;;;;;;7.45;3.85;;;2.90;99.90;;;;;;5097668;28;20039;-34
2024/01/27 03:05:44;;;;;;;6.30;3.00;;;3.00;99.90;;;;;;5097397;28;20032;-34
2024/01/27 03:08:09;;;;;;;8.75;3.40;;;2.90;99.90;;;;;;5097429;28;20028;-33
2024/01/27 03:10:35;;;;;;;8.25;3.35;;;2.90;99.90;;;;;;5096717;28;20023;-36
2024/01/27 03:13:00;;;;;;;7.63;3.55;;;2.90;99.90;;;;;;5097360;28;20059;-33
2024/01/27 03:15:26;;;;;;;5.40;2.83;;;2.80;99.90;;;;;;5098191;28;20055;-32
2024/01/27 03:17:53;;;;;;;3.45;2.63;;;2.80;99.90;;;;;;5098705;28;20487;-35
2024/01/27 03:20:18;;;;;;;8.88;2.92;;;2.80;99.90;;;;;;5099162;28;20032;-35
2024/01/27 03:22:44;;;;;;;8.77;2.67;;;2.80;99.90;;;;;;5099706;28;20028;-37
2024/01/27 03:25:13;;;;;;;5.75;2.85;;;2.80;99.90;;;;;;5098800;28;20027;-35
2024/01/27 03:27:39;;;;;;;4.63;2.40;;;2.80;99.90;;;;;;5099009;28;20035;-34
2024/01/27 03:30:11;;;;;;;4.22;2.22;;;2.80;99.90;;;;;;5098759;28;20019;-35
2024/01/27 03:32:37;;;;;;;8.05;2.55;;;2.80;99.90;;;;;;5100829;28;20015;-37
2024/01/27 03:35:03;;;;;;;5.53;2.13;;;2.80;99.90;;;;;;5102437;28;20023;-35
2024/01/27 03:37:29;;;;;;;4.55;2.15;;;2.80;99.90;;;;;;5101586;28;20023;-36
2024/01/27 03:39:55;;;;;;;6.85;2.40;;;2.80;99.90;;;;;;5102537;28;20027;-35
2024/01/27 03:42:24;;;;;;;5.05;2.53;;;2.80;99.90;;;;;;5102469;28;20031;-32
2024/01/27 03:44:49;;;;;;;5.00;2.20;;;2.80;99.90;;;;;;5102148;28;20027;-35
2024/01/27 03:47:15;;;;;;;5.63;2.65;;;2.80;99.90;;;;;;5102157;28;20072;-37
2024/01/27 03:49:41;;;;;;;4.80;2.38;;;2.80;99.90;;;;;;5103206;28;20530;-34
2024/01/27 03:52:06;;;;;;;6.55;2.72;;;2.80;99.90;;;;;;5102282;28;20035;-37
2024/01/27 03:54:32;;;;;;;8.20;3.72;;;2.80;99.90;;;;;;5101799;28;20028;-37
2024/01/27 03:56:57;;;;;;;6.43;2.47;;;2.80;99.90;;;;;;5101923;28;20027;-34
2024/01/27 03:59:23;;;;;;;5.88;2.97;;;2.80;99.90;;;;;;5101981;28;20808;-34
2024/01/27 04:01:48;;;;;;;6.55;3.10;;;2.70;99.90;;;;;;5102588;28;20047;-37
2024/01/27 04:04:14;;;;;;;7.50;3.15;;;2.70;99.90;;;;;;5102223;28;20072;-36
2024/01/27 04:06:40;;;;;;;7.93;3.72;;;2.70;99.90;;;;;;5101933;28;20042;-35
2024/01/27 04:09:09;;;;;;;6.72;3.15;;;2.70;99.90;;;;;;5102649;28;20069;-36
2024/01/27 04:11:36;;;;;;;6.35;3.28;;;2.60;99.90;;;;;;5102707;28;20015;-34
2024/01/27 04:14:03;;;;;;;7.80;3.38;;;2.60;99.90;;;;;;5101048;28;20151;-32
2024/01/27 04:16:32;;;;;;;5.30;2.90;;;2.60;99.90;;;;;;5102018;28;20492;-34
2024/01/27 04:18:58;;;;;;;8.77;3.70;;;2.60;99.90;;;;;;5102763;28;20012;-30
2024/01/27 04:21:23;;;;;;;6.82;2.70;;;2.60;99.90;;;;;;5101940;28;20084;-35
2024/01/27 04:23:49;;;;;;;5.30;2.75;;;2.50;99.90;;;;;;5102541;28;20023;-36
2024/01/27 04:26:18;;;;;;;7.25;2.97;;;2.50;99.90;;;;;;5101896;28;20043;-35
2024/01/27 04:28:44;;;;;;;8.07;3.00;;;2.40;99.90;;;;;;5100819;28;20026;-36
2024/01/27 04:31:10;;;;;;;6.53;3.40;;;2.40;99.90;;;;;;5081380;28;20020;-34
2024/01/27 04:33:36;;;;;;;6.85;3.45;;;2.40;99.90;;;;;;5095451;28;20024;-35
2024/01/27 04:36:01;;;;;;;8.15;3.67;;;2.40;99.90;;;;;;5101152;28;20027;-36
2024/01/27 04:38:27;;;;;;;7.15;3.47;;;2.40;99.90;;;;;;5101288;28;20043;-31
2024/01/27 04:40:53;;;;;;;7.57;3.22;;;2.40;99.90;;;;;;5101204;28;20039;-34
2024/01/27 04:43:20;;;;;;;6.55;3.63;;;2.30;99.90;;;;;;5099582;28;20020;-34
2024/01/27 04:45:47;;;;;;;6.47;3.80;;;2.30;99.90;;;;;;5101413;28;20126;-32
2024/01/27 04:48:12;;;;;;;7.70;3.63;;;2.30;99.90;;;;;;5100760;28;20550;-34
2024/01/27 04:50:38;;;;;;;8.05;3.58;;;2.30;99.90;;;;;;5101211;28;20039;-36
2024/01/27 04:53:04;;;;;;;4.10;3.33;;;2.30;99.90;;;;;;5101478;28;20019;-36
2024/01/27 04:55:29;;;;;;;6.50;3.30;;;2.20;99.90;;;;;;5101434;28;20067;-32
2024/01/27 04:57:55;;;;;;;6.85;3.65;;;2.20;99.90;;;;;;5100914;28;20135;-33
2024/01/27 05:00:21;;;;;;;6.57;3.60;;;2.20;99.90;;;;;;5101471;28;20028;-32
2024/01/27 05:02:46;;;;;;;8.40;3.97;;;2.20;99.90;;;;;;5100304;28;20036;-36
2024/01/27 05:05:12;;;;;;;5.13;3.78;;;2.20;99.90;;;;;;5101229;28;20035;-36
2024/01/27 05:07:38;;;;;;;7.53;4.45;;;2.20;99.90;;;;;;5101433;28;20789;-33
2024/01/27 05:10:04;;;;;;;8.48;3.75;;;2.10;99.90;;;;;;5098282;28;20036;-33
2024/01/27 05:12:30;;;;;;;6.90;3.47;;;2.20;99.90;;;;;;5100545;28;20062;-35
2024/01/27 05:14:56;;;;;;;8.88;3.80;;;2.10;99.90;;;;;;5100765;28;20130;-34
2024/01/27 05:17:21;;;;;;;7.25;3.42;;;2.10;99.90;;;;;;5100381;28;20122;-36
2024/01/27 05:19:47;;;;;;;7.18;3.78;;;2.10;99.90;;;;;;5101102;28;20531;-36
2024/01/27 05:22:12;;;;;;;6.47;3.15;;;2.10;99.90;;;;;;5100988;28;20051;-35
2024/01/27 05:24:38;;;;;;;7.25;4.15;;;2.10;99.90;;;;;;5100335;28;20650;-35
2024/01/27 05:27:04;;;;;;;6.57;3.35;;;2.10;99.90;;;;;;5100596;28;20043;-31
2024/01/27 05:29:29;;;;;;;10.23;5.03;;;2.10;99.90;;;;;;5100691;28;20019;-33
2024/01/27 05:31:55;;;;;;;7.78;3.83;;;2.00;99.90;;;;;;5100375;28;20030;-34
2024/01/27 05:34:20;;;;;;;7.65;4.20;;;2.00;99.90;;;;;;5100394;28;20020;-34
2024/01/27 05:36:47;;;;;;;9.10;4.13;;;2.00;99.90;;;;;;5101314;28;20028;-39
2024/01/27 05:39:14;;;;;;;12.23;3.97;;;2.00;99.90;;;;;;5099482;28;20039;-36
2024/01/27 05:41:39;;;;;;;6.63;3.65;;;2.00;99.90;;;;;;5099791;28;20059;-35
2024/01/27 05:44:05;;;;;;;7.10;4.03;;;2.00;99.90;;;;;;5100451;28;20098;-36
2024/01/27 05:46:30;;;;;;;7.95;4.00;;;2.00;99.90;;;;;;5099290;28;20547;-35
2024/01/27 05:49:01;;;;;;;7.20;4.03;;;2.00;99.90;;;;;;5100505;28;20023;-33
2024/01/27 05:51:33;;;;;;;8.60;4.68;;;2.00;99.90;;;;;;5100250;28;20058;-31
2024/01/27 05:53:59;;;;;;;7.05;3.88;;;1.90;99.90;;;;;;5079522;28;20551;-34
2024/01/27 05:56:24;;;;;;;6.30;4.30;;;1.90;99.90;;;;;;5094427;28;20038;-39
2024/01/27 05:58:50;;;;;;;7.57;4.28;;;1.90;99.90;;;;;;5100442;28;20110;-36
2024/01/27 06:01:18;;;;;;;11.80;4.35;;;1.90;99.90;;;;;;5099788;28;20108;-30
2024/01/27 06:03:44;;;;;;;8.25;4.53;;;1.80;99.90;;;;;;5100326;28;20031;-33
2024/01/27 06:06:09;;;;;;;7.82;4.28;;;1.80;99.90;;;;;;5099176;28;20159;-33
2024/01/27 06:08:35;;;;;;;8.23;4.63;;;1.80;99.90;;;;;;5099807;28;20019;-36
2024/01/27 06:11:01;;;;;;;10.68;5.03;;;1.80;99.90;;;;;;5099372;28;20111;-35
2024/01/27 06:13:27;;;;;;;7.13;4.18;;;1.80;99.90;;;;;;5099397;28;20039;-35
2024/01/27 06:15:52;;;;;;;8.93;4.07;;;1.80;99.90;;;;;;5098516;28;20452;-33
2024/01/27 06:18:18;;;;;;;9.50;4.85;;;1.80;99.90;;;;;;5099593;28;20031;-36
2024/01/27 06:20:44;;;;;;;7.28;4.80;;;1.80;99.90;;;;;;5100389;28;20074;-36
2024/01/27 06:23:09;;;;;;;8.93;4.75;;;1.70;99.90;;;;;;5096129;28;20134;-35
2024/01/27 06:25:35;;;;;;;8.57;4.88;;;1.70;99.90;;;;;;5099810;28;20363;-35
2024/01/27 06:28:00;;;;;;;8.77;4.40;;;1.70;99.90;;;;;;5098525;28;20682;-35
2024/01/27 06:30:26;;;;;;;11.95;5.40;;;1.70;99.90;;;;;;5099641;28;20063;-31
2024/01/27 06:32:52;;;;;;;11.85;5.22;;;1.70;99.90;;;;;;5099397;28;20024;-33
2024/01/27 06:35:17;;;;;;;8.63;4.72;;;1.70;99.90;;;;;;5098806;28;20042;-34
2024/01/27 06:37:43;;;;;;;8.25;4.20;;;1.70;99.90;;;;;;5099559;28;20583;-34
2024/01/27 06:40:09;;;;;;;12.00;4.97;;;1.70;99.90;;;;;;5099239;28;20552;-32
2024/01/27 06:42:35;;;;;;;9.90;4.65;;;1.60;99.90;;;;;;5099396;28;20074;-34
2024/01/27 06:45:00;;;;;;;9.75;5.05;;;1.60;99.90;;;;;;5100232;28;20036;-32
2024/01/27 06:47:26;;;;;;;7.47;4.50;;;1.60;99.90;;;;;;5099220;28;20032;-34
2024/01/27 06:49:51;;;;;;;7.00;4.47;;;1.60;99.90;;;;;;5099188;28;20019;-34
2024/01/27 06:52:17;;;;;;;10.20;5.40;;;1.60;99.90;;;;;;5099136;28;20031;-34
2024/01/27 06:54:44;;;;;;;8.40;5.05;;;1.60;99.90;;;;;;5099153;28;20033;-32
2024/01/27 06:57:29;;;;;;;10.02;5.30;;;1.60;99.90;;;;;;5098399;28;20054;-35
2024/01/27 06:59:58;;;;;;;9.85;5.10;;;1.60;99.90;;;;;;5087255;28;20032;-35
2024/01/27 07:02:24;;;;;;;10.73;5.15;;;1.60;99.90;;;;;;5098168;28;20890;-35
2024/01/27 07:04:50;;;;;;;10.40;5.35;;;1.50;99.90;;;;;;5099614;28;20028;-35
2024/01/27 07:07:15;;;;;;;11.90;6.25;;;1.50;99.90;;;;;;5100796;28;20077;-33
2024/01/27 07:09:41;;;;;;;9.60;5.65;;;1.50;99.90;;;;;;5103393;28;20053;-35
2024/01/27 07:12:08;;;;;;;9.95;5.28;;;1.50;99.90;;;;;;5103864;28;20023;-34
2024/01/27 07:14:33;;;;;;;11.20;5.22;;;1.50;99.90;;;;;;5103291;28;20913;-35
2024/01/27 07:16:59;;;;;;;12.70;5.78;;;1.50;99.90;;;;;;5103133;28;20023;-31
2024/01/27 07:19:24;;;;;;;10.15;6.20;;;1.50;99.90;;;;;;5103224;28;20538;-34
2024/01/27 07:21:50;;;;;;;12.73;6.38;;;1.50;99.90;;;;;;5103167;28;20023;-37
2024/01/27 07:24:15;;;;;;;9.45;6.00;;;1.50;99.90;;;;;;5101740;28;20027;-34
2024/01/27 07:26:41;;;;;;;11.30;6.60;;;1.50;99.90;;;;;;5103235;28;20035;-37
2024/01/27 07:29:07;;;;;;;14.35;7.13;;;1.50;99.90;;;;;;5103133;28;20023;-35
2024/01/27 07:31:33;;;;;;;14.68;7.75;;;1.50;99.90;;;;;;5102814;28;20654;-36
2024/01/27 07:34:01;;;;;;;11.93;7.30;;;1.40;99.90;;;;;;5102775;28;20478;-34
2024/01/27 07:36:32;;;;;;;14.77;7.53;;;1.40;99.90;;;;;;5102500;28;20035;-36
2024/01/27 07:38:58;;;;;;;13.38;8.02;;;1.50;99.90;;;;;;5102678;28;20555;-33
2024/01/27 07:41:24;;;;;;;13.65;7.57;;;1.50;99.90;;;;;;5102603;28;20027;-33
2024/01/27 07:43:49;;;;;;;15.15;7.80;;;1.50;99.90;;;;;;5102758;28;20042;-34
2024/01/27 07:46:15;;;;;;;14.80;7.57;;;1.40;99.90;;;;;;5101834;28;20042;-35
2024/01/27 07:48:41;;;;;;;10.98;6.55;;;1.40;99.90;;;;;;5102560;28;20051;-31
2024/01/27 07:51:06;;;;;;;9.32;6.80;;;1.50;99.90;;;;;;5098048;28;20746;-33
2024/01/27 07:53:33;;;;;;;11.60;7.03;;;1.40;99.90;;;;;;5102999;28;20020;-34
2024/01/27 07:55:59;;;;;;;12.30;6.97;;;1.50;99.90;;;;;;5102763;28;20780;-34
2024/01/27 07:58:24;;;;;;;14.32;7.50;;;1.50;99.90;;;;;;5102359;28;20100;-35
2024/01/27 08:00:50;;;;;;;11.40;6.75;;;1.50;99.90;;;;;;5101525;28;20023;-35
2024/01/27 08:03:16;;;;;;;10.45;7.00;;;1.50;99.90;;;;;;5102733;28;20036;-36
2024/01/27 08:05:41;;;;;;;10.98;5.93;;;1.50;99.90;;;;;;5101921;28;20044;-36
2024/01/27 08:08:07;;;;;;;10.15;6.75;;;1.50;99.90;;;;;;5102672;28;20023;-37
2024/01/27 08:10:32;;;;;;;7.32;5.80;;;1.50;99.90;;;;;;5102311;28;20034;-35
2024/01/27 08:12:58;;;;;;;7.38;5.43;;;1.50;99.90;;;;;;5101134;28;20189;-36
2024/01/27 08:15:24;;;;;;;12.32;6.22;;;1.50;99.90;;;;;;5101880;28;20434;-35
2024/01/27 08:17:49;;;;;;;6.30;5.47;;;1.50;99.90;;;;;;5101673;28;20020;-35
2024/01/27 08:20:15;;;;;;;11.15;5.63;;;1.50;99.90;;;;;;5101051;28;20020;-34
2024/01/27 08:22:43;;;;;;;9.93;6.30;;;1.60;99.90;;;;;;5102736;28;20039;-35
2024/01/27 08:25:09;;;;;;;10.13;5.95;;;1.60;99.90;;;;;;5102005;28;20019;-36
2024/01/27 08:27:34;;;;;;;10.98;5.85;;;1.70;99.90;;;;;;5101528;28;20671;-35
2024/01/27 08:30:00;;;;;;;8.82;5.45;;;1.70;99.90;;;;;;5102535;28;20034;-32
2024/01/27 08:32:26;;;;;;;14.98;6.15;;;1.80;99.90;;;;;;5102011;28;20035;-35
2024/01/27 08:34:51;;;;;;;9.65;5.60;;;1.80;99.90;;;;;;5101340;28;20628;-34
2024/01/27 08:37:20;;;;;;;9.07;5.53;;;1.90;99.90;;;;;;5100071;28;20561;-37
2024/01/27 08:39:46;;;;;;;9.85;5.97;;;1.90;99.90;;;;;;5101732;28;20876;-35
2024/01/27 08:42:12;;;;;;;13.02;6.60;;;2.00;99.90;;;;;;5100696;28;20028;-34
2024/01/27 08:44:44;;;;;;;9.77;5.63;;;2.00;99.90;;;;;;5101803;28;20024;-34
2024/01/27 08:47:10;;;;;;;8.43;6.40;;;2.10;99.90;;;;;;5100852;28;20168;-35
2024/01/27 08:49:35;;;;;;;9.07;6.32;;;2.10;99.90;;;;;;5100995;28;20040;-33
2024/01/27 08:52:01;;;;;;;8.57;5.90;;;2.20;99.90;;;;;;5101298;28;20119;-37
2024/01/27 08:54:27;;;;;;;7.88;5.82;;;2.20;99.90;;;;;;5100838;28;20027;-37
2024/01/27 08:56:52;;;;;;;12.52;6.53;;;2.30;99.90;;;;;;5100709;28;20034;-35
2024/01/27 08:59:18;;;;;;;10.85;6.00;;;2.30;99.90;;;;;;5100796;28;20776;-35
2024/01/27 09:01:43;;;;;;;10.77;5.72;;;2.30;99.90;;;;;;5100551;28;20028;-31
2024/01/27 09:04:09;;;;;;;8.50;5.85;;;2.40;99.90;;;;;;5099954;28;20031;-31
2024/01/27 09:06:35;;;;;;;10.15;5.68;;;2.40;99.90;;;;;;5100566;28;20031;-36
2024/01/27 09:09:00;;;;;;;10.73;5.68;;;2.40;99.90;;;;;;5100422;28;20031;-35
2024/01/27 09:11:30;;;;;;;11.57;6.07;;;2.50;99.90;;;;;;5101774;28;20450;-36
2024/01/27 09:13:56;;;;;;;8.95;6.07;;;2.60;99.90;;;;;;5097650;28;20051;-31
2024/01/27 09:16:21;;;;;;;8.85;5.22;;;2.60;99.90;;;;;;5100077;28;20028;-32
2024/01/27 09:18:49;;;;;;;6.95;5.25;;;2.70;99.90;;;;;;5100870;28;20035;-34
2024/01/27 09:21:20;;;;;;;10.88;5.63;;;2.70;99.90;;;;;;5100292;28;20027;-35
2024/01/27 09:23:47;;;;;;;10.43;6.20;;;2.70;99.90;;;;;;5100294;28;20038;-36
2024/01/27 09:26:13;;;;;;;9.27;5.50;;;2.80;99.90;;;;;;5099963;28;20506;-35
2024/01/27 09:28:43;;;;;;;7.95;5.75;;;2.80;99.90;;;;;;5100547;28;20205;-34
2024/01/27 09:31:10;;;;;;;6.05;5.47;;;2.80;99.90;;;;;;5099517;28;20024;-34
2024/01/27 09:33:36;;;;;;;7.43;5.20;;;2.80;99.90;;;;;;5100546;28;20023;-36
2024/01/27 09:36:02;;;;;;;9.25;5.45;;;2.80;99.90;;;;;;5101110;28;20038;-37
2024/01/27 09:38:28;;;;;;;8.45;5.65;;;2.80;99.90;;;;;;5100160;28;20028;-33
2024/01/27 09:40:54;;;;;;;7.40;4.63;;;2.80;99.90;;;;;;5101030;28;20678;-34
2024/01/27 09:43:21;;;;;;;11.13;5.90;;;2.90;99.90;;;;;;5100417;28;20621;-35
2024/01/27 09:45:46;;;;;;;6.65;5.70;;;2.80;99.90;;;;;;5098952;28;20046;-34
2024/01/27 09:48:13;;;;;;;7.40;5.07;;;2.90;99.90;;;;;;5099969;28;20450;-33
2024/01/27 09:50:41;;;;;;;8.85;5.10;;;2.90;99.90;;;;;;5100390;28;20255;-30
2024/01/27 09:53:13;;;;;;;7.22;5.35;;;2.90;99.90;;;;;;5099892;28;20032;-33
2024/01/27 09:55:39;;;;;;;9.25;5.18;;;2.90;99.90;;;;;;5100172;28;20024;-36
2024/01/27 09:58:05;;;;;;;11.90;5.63;;;3.00;99.90;;;;;;5099460;28;20474;-30
2024/01/27 10:00:31;;;;;;;9.07;5.57;;;3.00;99.90;;;;;;5100704;28;20026;-35
2024/01/27 10:02:57;;;;;;;7.82;5.38;;;3.10;99.90;;;;;;5099997;28;20019;-31
2024/01/27 10:05:24;;;;;;;7.97;5.05;;;3.10;99.90;;;;;;5099010;28;20825;-33
2024/01/27 10:07:49;;;;;;;9.52;6.88;;;3.20;99.90;;;;;;5100395;28;20646;-40
2024/01/27 10:10:15;;;;;;;9.43;5.65;;;3.20;99.90;;;;;;5099509;28;20123;-30
2024/01/27 10:12:42;;;;;;;10.52;6.85;;;3.30;99.90;;;;;;5099223;28;20715;-30
2024/01/27 10:15:19;;;;;;;11.05;6.22;;;3.30;99.90;;;;;;5099062;28;20039;-33
2024/01/27 10:17:44;;;;;;;11.75;6.65;;;3.40;99.90;;;;;;5100076;28;20152;-31
2024/01/27 10:20:15;;;;;;;8.10;5.88;;;3.50;99.90;;;;;;5098593;28;20068;-32
2024/01/27 10:22:41;;;;;;;9.02;6.13;;;3.60;99.90;;;;;;5099592;28;20411;-32
2024/01/27 10:25:09;;;;;;;8.02;5.55;;;3.60;99.90;;;;;;5099035;28;20024;-35
2024/01/27 10:27:35;;;;;;;9.70;6.38;;;3.70;99.90;;;;;;5099064;28;20031;-36
2024/01/27 10:30:00;;;;;;;12.77;6.30;;;3.80;99.90;;;;;;5100116;28;20027;-34
2024/01/27 10:32:32;;;;;;;10.82;6.15;;;3.80;99.90;;;;;;5099995;28;20024;-34
2024/01/27 10:35:11;;;;;;;8.18;6.03;;;3.90;99.90;;;;;;5099436;28;20034;-34
2024/01/27 10:37:37;;;;;;;9.05;5.88;;;3.90;99.90;;;;;;5099788;28;20266;-33
2024/01/27 10:40:08;;;;;;;8.02;5.47;;;4.00;99.90;;;;;;5099638;28;20023;-36
2024/01/27 10:42:35;;;;;;;7.43;4.88;;;4.10;99.90;;;;;;5099188;28;20027;-34
2024/01/27 10:45:00;;;;;;;7.53;5.25;;;4.10;99.90;;;;;;5099962;28;20026;-36
2024/01/27 10:47:30;;;;;;;8.88;5.10;;;4.20;99.90;;;;;;5099152;28;20035;-35
2024/01/27 10:49:57;;;;;;;8.23;5.38;;;4.30;99.90;;;;;;5099729;28;20047;-33
2024/01/27 10:52:28;;;;;;;8.73;4.85;;;4.30;99.90;;;;;;5099053;28;20858;-35
2024/01/27 10:55:02;;;;;;;10.32;4.90;;;4.30;99.90;;;;;;5098856;28;20096;-35
2024/01/27 10:57:29;;;;;;;10.27;5.57;;;4.40;99.90;;;;;;5096547;28;20127;-34
2024/01/27 10:59:57;;;;;;;9.10;5.97;;;4.40;99.90;;;;;;5099232;28;20020;-32
2024/01/27 11:02:23;;;;;;;9.80;5.82;;;4.50;99.90;;;;;;5097906;28;20028;-35
2024/01/27 11:04:50;;;;;;;15.90;7.03;;;4.60;99.90;;;;;;5099743;28;20745;-32
2024/01/27 11:07:19;;;;;;;11.98;7.03;;;4.70;99.90;;;;;;5098454;28;20127;-33
2024/01/27 11:09:47;;;;;;;13.57;7.03;;;4.80;99.90;;;;;;5099813;28;20028;-34
2024/01/27 11:12:13;;;;;;;10.10;5.18;;;4.90;99.90;;;;;;5098858;28;20027;-35
2024/01/27 11:14:38;;;;;;;9.85;5.88;;;4.90;99.90;;;;;;5099006;28;20593;-34
2024/01/27 11:17:04;;;;;;;9.55;5.20;;;5.00;99.90;;;;;;5098334;28;20020;-37
2024/01/27 11:19:29;;;;;;;8.57;5.57;;;5.00;99.90;;;;;;5099016;28;20595;-36
2024/01/27 11:22:04;;;;;;;9.82;5.03;;;5.10;99.90;;;;;;5098906;28;20036;-34
2024/01/27 11:24:30;;;;;;;7.95;5.20;;;5.10;99.90;;;;;;5098497;28;20023;-36
2024/01/27 11:27:06;;;;;;;8.27;4.80;;;5.10;99.90;;;;;;5099032;28;20054;-31
2024/01/27 11:29:33;;;;;;;9.38;5.55;;;5.20;99.90;;;;;;5096233;28;20031;-36
2024/01/27 11:32:03;;;;;;;9.82;6.70;;;5.20;99.90;;;;;;5097447;28;20023;-33
2024/01/27 11:34:41;;;;;;;10.43;5.75;;;5.30;99.90;;;;;;5097951;28;20032;-34
2024/01/27 11:37:16;;;;;;;10.30;5.25;;;5.30;99.90;;;;;;5097590;28;20023;-37
2024/01/27 11:39:42;;;;;;;8.65;5.55;;;5.40;99.90;;;;;;5098229;28;20031;-34
2024/01/27 11:42:09;;;;;;;10.88;5.88;;;5.40;99.90;;;;;;5097479;28;20030;-33
2024/01/27 11:44:35;;;;;;;11.02;5.68;;;5.50;99.90;;;;;;5098112;28;20055;-35
2024/01/27 11:47:01;;;;;;;10.32;5.80;;;5.50;99.90;;;;;;5098425;28;20163;-35
2024/01/27 11:49:30;;;;;;;8.40;5.10;;;5.60;99.90;;;;;;5098741;28;20478;-36
2024/01/27 11:51:55;;;;;;;8.10;4.85;;;5.70;99.90;;;;;;5098314;28;20030;-35
2024/01/27 11:54:21;;;;;;;7.15;4.90;;;5.70;99.90;;;;;;5102346;28;20726;-35
2024/01/27 11:56:46;;;;;;;8.43;4.90;;;5.80;99.90;;;;;;5103460;28;20104;-36
2024/01/27 11:59:12;;;;;;;6.55;4.47;;;5.80;99.90;;;;;;5101941;28;20031;-31
2024/01/27 12:01:38;;;;;;;6.85;4.03;;;5.80;99.90;;;;;;5103021;28;20535;-32
2024/01/27 12:04:07;;;;;;;10.13;4.80;;;5.90;99.90;;;;;;5101890;28;20027;-38
2024/01/27 12:06:33;;;;;;;13.63;5.55;;;5.90;99.90;;;;;;5101555;28;20032;-36
2024/01/27 12:08:59;;;;;;;6.80;4.50;;;5.90;99.90;;;;;;5101863;28;20043;-37
2024/01/27 12:11:27;;;;;;;8.07;4.82;;;6.00;99.90;;;;;;5101270;28;20028;-37
2024/01/27 12:13:53;;;;;;;8.85;4.82;;;6.00;99.90;;;;;;5100850;28;20039;-36
2024/01/27 12:16:21;;;;;;;8.88;4.65;;;6.10;99.90;;;;;;5101439;28;20583;-33
2024/01/27 12:18:47;;;;;;;9.20;4.50;;;6.10;99.90;;;;;;5101319;28;20098;-32
2024/01/27 12:21:13;;;;;;;9.68;4.65;;;6.20;99.90;;;;;;5101746;28;20043;-33
2024/01/27 12:24:15;;;;;;;7.93;4.20;;;6.20;99.90;;;;;;5101849;28;20050;-34
2024/01/27 12:26:41;;;;;;;7.22;3.88;;;6.20;99.90;;;;;;5088124;28;20036;-33
2024/01/27 12:29:07;;;;;;;7.88;4.55;;;6.30;99.90;;;;;;5102234;28;20023;-38
2024/01/27 12:31:33;;;;;;;11.82;4.57;;;6.30;99.90;;;;;;5102114;28;20435;-33
2024/01/27 12:33:59;;;;;;;12.60;4.53;;;6.30;99.90;;;;;;5101072;28;20477;-37
2024/01/27 12:36:24;;;;;;;7.43;4.10;;;6.40;99.90;;;;;;5101877;28;20028;-37
2024/01/27 12:38:54;;;;;;;8.13;4.40;;;6.40;99.90;;;;;;5101165;28;20019;-35
2024/01/27 12:41:19;;;;;;;6.63;3.88;;;6.50;99.90;;;;;;5100215;28;20027;-33
2024/01/27 12:43:45;;;;;;;9.68;4.65;;;6.50;99.90;;;;;;5101259;28;20138;-30
2024/01/27 12:46:12;;;;;;;8.32;4.03;;;6.50;99.90;;;;;;5100330;28;20471;-32
2024/01/27 12:48:38;;;;;;;7.00;3.95;;;6.60;99.90;;;;;;5100408;28;20023;-36
2024/01/27 12:51:04;;;;;;;14.98;5.18;;;6.60;99.90;;;;;;5100681;28;20458;-32